CheckWX is a tool to help pilots better visualize weather data.  It is not intended as a substitute for an official pre-flight weather briefing.

08:16:03 UTC

LEST TAF
Santiago de Compostela Airport
Santiago de Compostela, Spain
TAF LEST 220500Z 2206/2306 16009KT 9999 FEW040 TX19/2215Z TN06/2206Z

Feb-22@
06:00 UTC

Feb-22 @ 06:00 UTC

Feb-23@
06:00 UTC

Feb-23 @ 06:00 UTC

TAF LEST 220500Z 2206/2306 16009KT 9999 FEW040 TX19/2215Z TN06/2206Z
Wind
  • 160° at 9 KTS
Cloud Levels
  • Few at 4,000' AGL